sensor_id;sensor_type;location;lat;lon;timestamp;pressure;altitude;pressure_sealevel;temperature
34310;BMP280;61664;48.112;11.662;2023-03-25T00:00:14;94995.78;;;12.04
34310;BMP280;61664;48.112;11.662;2023-03-25T00:02:46;94994.06;;;12.01
34310;BMP280;61664;48.112;11.662;2023-03-25T00:05:17;94991.13;;;11.99
34310;BMP280;61664;48.112;11.662;2023-03-25T00:07:48;94992.38;;;12.04
34310;BMP280;61664;48.112;11.662;2023-03-25T00:10:15;94985.50;;;11.97
34310;BMP280;61664;48.112;11.662;2023-03-25T00:12:42;94977.47;;;11.97
34310;BMP280;61664;48.112;11.662;2023-03-25T00:15:12;94992.13;;;12.02
34310;BMP280;61664;48.112;11.662;2023-03-25T00:17:39;94982.34;;;11.99
34310;BMP280;61664;48.112;11.662;2023-03-25T00:20:07;94981.63;;;11.98
34310;BMP280;61664;48.112;11.662;2023-03-25T00:22:37;94978.69;;;11.96
34310;BMP280;61664;48.112;11.662;2023-03-25T00:25:10;94979.63;;;11.93
34310;BMP280;61664;48.112;11.662;2023-03-25T00:27:39;94974.03;;;11.91
34310;BMP280;61664;48.112;11.662;2023-03-25T00:30:07;94983.03;;;11.94
34310;BMP280;61664;48.112;11.662;2023-03-25T00:32:34;94975.50;;;11.92
34310;BMP280;61664;48.112;11.662;2023-03-25T00:35:02;94971.53;;;11.87
34310;BMP280;61664;48.112;11.662;2023-03-25T00:37:28;94977.16;;;11.89
34310;BMP280;61664;48.112;11.662;2023-03-25T00:39:55;94990.09;;;11.91
34310;BMP280;61664;48.112;11.662;2023-03-25T00:42:22;94976.72;;;11.91
34310;BMP280;61664;48.112;11.662;2023-03-25T00:44:52;94965.47;;;11.87
34310;BMP280;61664;48.112;11.662;2023-03-25T00:47:20;94956.69;;;11.86
34310;BMP280;61664;48.112;11.662;2023-03-25T00:49:48;94974.03;;;11.91
34310;BMP280;61664;48.112;11.662;2023-03-25T00:52:16;94957.22;;;11.91
34310;BMP280;61664;48.112;11.662;2023-03-25T00:54:44;94965.47;;;11.87
34310;BMP280;61664;48.112;11.662;2023-03-25T00:57:11;94962.13;;;11.98
34310;BMP280;61664;48.112;11.662;2023-03-25T00:59:39;94962.63;;;11.96
34310;BMP280;61664;48.112;11.662;2023-03-25T01:02:06;94953.63;;;11.99
34310;BMP280;61664;48.112;11.662;2023-03-25T01:04:34;94955.88;;;12.06
34310;BMP280;61664;48.112;11.662;2023-03-25T01:07:01;94956.13;;;12.08
34310;BMP280;61664;48.112;11.662;2023-03-25T01:09:29;94964.19;;;12.14
34310;BMP280;61664;48.112;11.662;2023-03-25T01:11:57;94943.75;;;12.11
34310;BMP280;61664;48.112;11.662;2023-03-25T01:14:24;94935.47;;;12.14
34310;BMP280;61664;48.112;11.662;2023-03-25T01:16:53;94954.00;;;12.18
34310;BMP280;61664;48.112;11.662;2023-03-25T01:19:21;94944.53;;;12.22
34310;BMP280;61664;48.112;11.662;2023-03-25T01:21:49;94945.50;;;12.19
34310;BMP280;61664;48.112;11.662;2023-03-25T01:24:16;94930.38;;;12.16
34310;BMP280;61664;48.112;11.662;2023-03-25T01:26:44;94953.88;;;12.33
34310;BMP280;61664;48.112;11.662;2023-03-25T01:29:16;94947.03;;;12.37
34310;BMP280;61664;48.112;11.662;2023-03-25T01:31:43;94949.97;;;12.39
34310;BMP280;61664;48.112;11.662;2023-03-25T01:34:11;94939.75;;;12.38
34310;BMP280;61664;48.112;11.662;2023-03-25T01:36:38;94957.31;;;12.44
34310;BMP280;61664;48.112;11.662;2023-03-25T01:39:07;94952.69;;;12.45
34310;BMP280;61664;48.112;11.662;2023-03-25T01:41:35;94937.84;;;12.44
34310;BMP280;61664;48.112;11.662;2023-03-25T01:46:45;94931.75;;;12.49
34310;BMP280;61664;48.112;11.662;2023-03-25T01:49:25;94937.66;;;12.53
34310;BMP280;61664;48.112;11.662;2023-03-25T01:52:02;94943.56;;;12.63
34310;BMP280;61664;48.112;11.662;2023-03-25T01:54:31;94948.66;;;12.66
34310;BMP280;61664;48.112;11.662;2023-03-25T01:56:58;94945.28;;;12.71
34310;BMP280;61664;48.112;11.662;2023-03-25T01:59:27;94936.97;;;12.69
34310;BMP280;61664;48.112;11.662;2023-03-25T02:01:57;94938.69;;;12.78
34310;BMP280;61664;48.112;11.662;2023-03-25T02:04:49;94924.34;;;12.75
34310;BMP280;61664;48.112;11.662;2023-03-25T02:07:28;94944.78;;;12.78
34310;BMP280;61664;48.112;11.662;2023-03-25T02:10:05;94934.06;;;12.78
34310;BMP280;61664;48.112;11.662;2023-03-25T02:12:33;94934.31;;;12.80
34310;BMP280;61664;48.112;11.662;2023-03-25T02:15:04;94928.22;;;12.80
34310;BMP280;61664;48.112;11.662;2023-03-25T02:26:39;94917.66;;;12.48
34310;BMP280;61664;48.112;11.662;2023-03-25T02:40:45;94911.88;;;12.18
34310;BMP280;61664;48.112;11.662;2023-03-25T02:45:57;94920.41;;;12.17
34310;BMP280;61664;48.112;11.662;2023-03-25T02:48:37;94899.16;;;12.02
34310;BMP280;61664;48.112;11.662;2023-03-25T02:51:16;94941.09;;;12.16
34310;BMP280;61664;48.112;11.662;2023-03-25T02:53:47;94931.53;;;12.10
34310;BMP280;61664;48.112;11.662;2023-03-25T02:56:20;94920.38;;;12.11
34310;BMP280;61664;48.112;11.662;2023-03-25T02:58:54;94944.19;;;12.09
34310;BMP280;61664;48.112;11.662;2023-03-25T03:01:22;94934.69;;;12.08
34310;BMP280;61664;48.112;11.662;2023-03-25T03:03:54;94936.63;;;12.02
34310;BMP280;61664;48.112;11.662;2023-03-25T03:06:23;94928.56;;;11.97
34310;BMP280;61664;48.112;11.662;2023-03-25T03:14:29;94934.69;;;12.08
34310;BMP280;61664;48.112;11.662;2023-03-25T03:17:19;94931.53;;;12.10
34310;BMP280;61664;48.112;11.662;2023-03-25T03:20:09;94920.34;;;12.06
34310;BMP280;61664;48.112;11.662;2023-03-25T03:23:20;94905.34;;;11.88
34310;BMP280;61664;48.112;11.662;2023-03-25T03:25:54;94899.44;;;11.73
34310;BMP280;61664;48.112;11.662;2023-03-25T03:28:32;94897.13;;;11.60
34310;BMP280;61664;48.112;11.662;2023-03-25T03:31:27;94907.56;;;11.58
34310;BMP280;61664;48.112;11.662;2023-03-25T03:34:32;94920.63;;;11.50
34310;BMP280;61664;48.112;11.662;2023-03-25T03:37:03;94918.44;;;11.49
34310;BMP280;61664;48.112;11.662;2023-03-25T03:39:35;94921.84;;;11.49
34310;BMP280;61664;48.112;11.662;2023-03-25T03:42:33;94923.53;;;11.47
34310;BMP280;61664;48.112;11.662;2023-03-25T03:45:07;94913.97;;;11.40
34310;BMP280;61664;48.112;11.662;2023-03-25T03:47:41;94937.22;;;11.54
34310;BMP280;61664;48.112;11.662;2023-03-25T03:50:18;94940.84;;;11.51
34310;BMP280;61664;48.112;11.662;2023-03-25T03:52:55;94936.97;;;11.52
34310;BMP280;61664;48.112;11.662;2023-03-25T03:55:52;94942.25;;;11.47
34310;BMP280;61664;48.112;11.662;2023-03-25T03:58:55;94946.88;;;11.46
34310;BMP280;61664;48.112;11.662;2023-03-25T04:01:45;94939.31;;;11.45
34310;BMP280;61664;48.112;11.662;2023-03-25T04:04:19;94935.13;;;11.38
34310;BMP280;61664;48.112;11.662;2023-03-25T04:07:21;94949.69;;;11.37
34310;BMP280;61664;48.112;11.662;2023-03-25T04:10:08;94957.00;;;11.37
34310;BMP280;61664;48.112;11.662;2023-03-25T04:12:44;94953.69;;;11.22
34310;BMP280;61664;48.112;11.662;2023-03-25T04:15:13;94955.63;;;11.21
34310;BMP280;61664;48.112;11.662;2023-03-25T04:17:40;94968.06;;;11.24
34310;BMP280;61664;48.112;11.662;2023-03-25T04:20:14;94962.16;;;11.20
34310;BMP280;61664;48.112;11.662;2023-03-25T04:22:41;94966.03;;;11.19
34310;BMP280;61664;48.112;11.662;2023-03-25T04:25:12;94969.91;;;11.18
34310;BMP280;61664;48.112;11.662;2023-03-25T04:27:40;94962.31;;;11.11
34310;BMP280;61664;48.112;11.662;2023-03-25T04:30:08;94970.88;;;11.15
34310;BMP280;61664;48.112;11.662;2023-03-25T04:32:35;94970.06;;;11.09
34310;BMP280;61664;48.112;11.662;2023-03-25T04:35:02;94972.53;;;11.12
34310;BMP280;61664;48.112;11.662;2023-03-25T04:37:29;94966.16;;;11.10
34310;BMP280;61664;48.112;11.662;2023-03-25T04:39:59;94968.66;;;11.13
34310;BMP280;61664;48.112;11.662;2023-03-25T04:42:26;94954.50;;;11.07
34310;BMP280;61664;48.112;11.662;2023-03-25T04:44:59;94976.50;;;11.17
34310;BMP280;61664;48.112;11.662;2023-03-25T04:47:26;94971.06;;;11.11
34310;BMP280;61664;48.112;11.662;2023-03-25T04:49:53;94977.69;;;11.16
34310;BMP280;61664;48.112;11.662;2023-03-25T04:52:20;94990.41;;;11.21
34310;BMP280;61664;48.112;11.662;2023-03-25T04:54:47;94989.19;;;11.22
34310;BMP280;61664;48.112;11.662;2023-03-25T04:57:14;94983.16;;;11.27
34310;BMP280;61664;48.112;11.662;2023-03-25T04:59:41;94980.72;;;11.29
34310;BMP280;61664;48.112;11.662;2023-03-25T05:02:10;94974.03;;;11.39
34310;BMP280;61664;48.112;11.662;2023-03-25T05:04:39;94974.03;;;11.39
34310;BMP280;61664;48.112;11.662;2023-03-25T05:07:13;94963.28;;;11.34
34310;BMP280;61664;48.112;11.662;2023-03-25T05:09:42;94957.53;;;11.41
34310;BMP280;61664;48.112;11.662;2023-03-25T05:12:09;94960.66;;;11.39
34310;BMP280;61664;48.112;11.662;2023-03-25T05:14:37;94963.59;;;11.41
34310;BMP280;61664;48.112;11.662;2023-03-25T05:17:04;94957.78;;;11.43
34310;BMP280;61664;48.112;11.662;2023-03-25T05:19:31;94951.41;;;11.40
34310;BMP280;61664;48.112;11.662;2023-03-25T05:22:01;94968.03;;;11.50
34310;BMP280;61664;48.112;11.662;2023-03-25T05:24:29;94959.84;;;11.53
34310;BMP280;61664;48.112;11.662;2023-03-25T05:26:56;94935.38;;;11.40
34310;BMP280;61664;48.112;11.662;2023-03-25T05:29:23;94951.91;;;11.39
34310;BMP280;61664;48.112;11.662;2023-03-25T05:31:49;94956.13;;;11.45
34310;BMP280;61664;48.112;11.662;2023-03-25T05:34:16;94958.66;;;11.34
34310;BMP280;61664;48.112;11.662;2023-03-25T05:36:43;94974.56;;;11.43
34310;BMP280;61664;48.112;11.662;2023-03-25T05:39:10;94963.53;;;11.36
34310;BMP280;61664;48.112;11.662;2023-03-25T05:41:37;94974.97;;;11.36
34310;BMP280;61664;48.112;11.662;2023-03-25T05:44:07;94974.03;;;11.39
34310;BMP280;61664;48.112;11.662;2023-03-25T05:46:35;94999.97;;;11.53
34310;BMP280;61664;48.112;11.662;2023-03-25T05:49:02;94986.41;;;11.63
34310;BMP280;61664;48.112;11.662;2023-03-25T05:51:32;94988.94;;;11.72
34310;BMP280;61664;48.112;11.662;2023-03-25T05:54:04;94984.91;;;11.82
34310;BMP280;61664;48.112;11.662;2023-03-25T05:56:38;94982.97;;;11.88
34310;BMP280;61664;48.112;11.662;2023-03-25T05:59:05;94989.13;;;11.94
34310;BMP280;61664;48.112;11.662;2023-03-25T06:01:34;94995.75;;;11.99
34310;BMP280;61664;48.112;11.662;2023-03-25T06:04:03;95000.09;;;11.96
34310;BMP280;61664;48.112;11.662;2023-03-25T06:06:31;95001.31;;;11.95
34310;BMP280;61664;48.112;11.662;2023-03-25T06:09:01;94981.28;;;11.85
34310;BMP280;61664;48.112;11.662;2023-03-25T06:11:28;95000.53;;;11.89
34310;BMP280;61664;48.112;11.662;2023-03-25T06:13:55;95024.19;;;11.96
34310;BMP280;61664;48.112;11.662;2023-03-25T06:16:24;95022.72;;;11.95
34310;BMP280;61664;48.112;11.662;2023-03-25T06:18:57;95033.44;;;12.01
34310;BMP280;61664;48.112;11.662;2023-03-25T06:21:32;95035.69;;;12.02
34310;BMP280;61664;48.112;11.662;2023-03-25T06:24:00;95039.84;;;12.09
34310;BMP280;61664;48.112;11.662;2023-03-25T06:26:28;95040.69;;;12.20
34310;BMP280;61664;48.112;11.662;2023-03-25T06:28:55;95049.75;;;12.29
34310;BMP280;61664;48.112;11.662;2023-03-25T06:31:24;95052.69;;;12.31
34310;BMP280;61664;48.112;11.662;2023-03-25T06:33:59;95040.22;;;12.22
34310;BMP280;61664;48.112;11.662;2023-03-25T06:36:27;95037.50;;;12.16
34310;BMP280;61664;48.112;11.662;2023-03-25T06:38:53;95049.19;;;12.13
34310;BMP280;61664;48.112;11.662;2023-03-25T06:41:20;95054.75;;;12.15
34310;BMP280;61664;48.112;11.662;2023-03-25T06:43:50;95058.88;;;12.11
34310;BMP280;61664;48.112;11.662;2023-03-25T06:46:17;95064.25;;;12.11
34310;BMP280;61664;48.112;11.662;2023-03-25T06:48:44;95072.47;;;12.07
34310;BMP280;61664;48.112;11.662;2023-03-25T06:51:11;95075.63;;;12.06
34310;BMP280;61664;48.112;11.662;2023-03-25T06:53:38;95071.22;;;12.03
34310;BMP280;61664;48.112;11.662;2023-03-25T06:56:06;95070.50;;;12.02
34310;BMP280;61664;48.112;11.662;2023-03-25T06:58:33;95078.00;;;11.98
34310;BMP280;61664;48.112;11.662;2023-03-25T07:01:03;95088.38;;;11.91
34310;BMP280;61664;48.112;11.662;2023-03-25T07:03:35;95080.22;;;11.79
34310;BMP280;61664;48.112;11.662;2023-03-25T07:06:06;95097.59;;;11.84
34310;BMP280;61664;48.112;11.662;2023-03-25T07:08:33;95091.63;;;11.74
34310;BMP280;61664;48.112;11.662;2023-03-25T07:11:06;95093.38;;;11.77
34310;BMP280;61664;48.112;11.662;2023-03-25T07:13:33;95094.09;;;11.78
34310;BMP280;61664;48.112;11.662;2023-03-25T07:16:01;95099.63;;;11.95
34310;BMP280;61664;48.112;11.662;2023-03-25T07:18:28;95094.78;;;11.99
34310;BMP280;61664;48.112;11.662;2023-03-25T07:20:56;95090.66;;;11.98
34310;BMP280;61664;48.112;11.662;2023-03-25T07:23:23;95092.44;;;12.06
34310;BMP280;61664;48.112;11.662;2023-03-25T07:25:50;95102.50;;;12.17
34310;BMP280;61664;48.112;11.662;2023-03-25T07:28:17;95103.56;;;12.25
34310;BMP280;61664;48.112;11.662;2023-03-25T07:30:44;95094.31;;;12.26
34310;BMP280;61664;48.112;11.662;2023-03-25T07:33:11;95118.34;;;12.20
34310;BMP280;61664;48.112;11.662;2023-03-25T07:35:38;95121.22;;;12.11
34310;BMP280;61664;48.112;11.662;2023-03-25T07:38:06;95107.19;;;11.96
34310;BMP280;61664;48.112;11.662;2023-03-25T07:40:32;95111.59;;;11.99
34310;BMP280;61664;48.112;11.662;2023-03-25T07:42:59;95134.94;;;11.99
34310;BMP280;61664;48.112;11.662;2023-03-25T07:45:27;95117.81;;;11.91
34310;BMP280;61664;48.112;11.662;2023-03-25T07:47:54;95117.53;;;11.83
34310;BMP280;61664;48.112;11.662;2023-03-25T07:50:22;95105.66;;;11.89
34310;BMP280;61664;48.112;11.662;2023-03-25T07:52:52;95110.31;;;11.95
34310;BMP280;61664;48.112;11.662;2023-03-25T07:55:19;95119.63;;;11.99
34310;BMP280;61664;48.112;11.662;2023-03-25T07:57:46;95113.00;;;11.95
34310;BMP280;61664;48.112;11.662;2023-03-25T08:00:13;95111.78;;;11.96
34310;BMP280;61664;48.112;11.662;2023-03-25T08:02:40;95131.13;;;12.05
34310;BMP280;61664;48.112;11.662;2023-03-25T08:05:08;95120.00;;;12.12
34310;BMP280;61664;48.112;11.662;2023-03-25T08:07:35;95124.94;;;12.19
34310;BMP280;61664;48.112;11.662;2023-03-25T08:10:02;95142.34;;;12.35
34310;BMP280;61664;48.112;11.662;2023-03-25T08:12:29;95122.28;;;12.56
34310;BMP280;61664;48.112;11.662;2023-03-25T08:14:56;95139.94;;;13.06
34310;BMP280;61664;48.112;11.662;2023-03-25T08:17:23;95134.88;;;13.89
34310;BMP280;61664;48.112;11.662;2023-03-25T08:19:50;95110.03;;;14.45
34310;BMP280;61664;48.112;11.662;2023-03-25T08:22:17;95140.06;;;14.54
34310;BMP280;61664;48.112;11.662;2023-03-25T08:24:44;95136.41;;;14.29
34310;BMP280;61664;48.112;11.662;2023-03-25T08:27:11;95119.53;;;14.01
34310;BMP280;61664;48.112;11.662;2023-03-25T08:29:43;95127.81;;;13.86
34310;BMP280;61664;48.112;11.662;2023-03-25T08:32:10;95122.38;;;13.70
34310;BMP280;61664;48.112;11.662;2023-03-25T08:34:37;95125.53;;;13.57
34310;BMP280;61664;48.112;11.662;2023-03-25T08:37:07;95122.34;;;13.42
34310;BMP280;61664;48.112;11.662;2023-03-25T08:39:36;95118.63;;;13.39
34310;BMP280;61664;48.112;11.662;2023-03-25T08:42:07;95119.84;;;13.33
34310;BMP280;61664;48.112;11.662;2023-03-25T08:44:35;95120.53;;;13.27
34310;BMP280;61664;48.112;11.662;2023-03-25T08:47:02;95120.97;;;13.15
34310;BMP280;61664;48.112;11.662;2023-03-25T08:49:29;95112.63;;;13.07
34310;BMP280;61664;48.112;11.662;2023-03-25T08:51:57;95126.03;;;13.07
34310;BMP280;61664;48.112;11.662;2023-03-25T08:54:26;95121.16;;;13.06
34310;BMP280;61664;48.112;11.662;2023-03-25T08:56:54;95116.22;;;12.99
34310;BMP280;61664;48.112;11.662;2023-03-25T08:59:21;95111.91;;;13.07
34310;BMP280;61664;48.112;11.662;2023-03-25T09:01:48;95119.47;;;13.03
34310;BMP280;61664;48.112;11.662;2023-03-25T09:04:15;95117.75;;;13.05
34310;BMP280;61664;48.112;11.662;2023-03-25T09:06:42;95102.81;;;12.99
34310;BMP280;61664;48.112;11.662;2023-03-25T09:09:15;95106.06;;;13.03
34310;BMP280;61664;48.112;11.662;2023-03-25T09:11:43;95102.16;;;13.09
34310;BMP280;61664;48.112;11.662;2023-03-25T09:14:10;95109.81;;;13.22
34310;BMP280;61664;48.112;11.662;2023-03-25T09:16:37;95104.63;;;13.18
34310;BMP280;61664;48.112;11.662;2023-03-25T09:19:04;95118.09;;;13.30
34310;BMP280;61664;48.112;11.662;2023-03-25T09:21:31;95102.28;;;13.32
34310;BMP280;61664;48.112;11.662;2023-03-25T09:23:58;95109.88;;;13.50
34310;BMP280;61664;48.112;11.662;2023-03-25T09:26:25;95103.09;;;13.54
34310;BMP280;61664;48.112;11.662;2023-03-25T09:28:52;95108.28;;;13.80
34310;BMP280;61664;48.112;11.662;2023-03-25T09:31:22;95113.47;;;14.23
34310;BMP280;61664;48.112;11.662;2023-03-25T09:33:49;95096.97;;;14.99
34310;BMP280;61664;48.112;11.662;2023-03-25T09:36:16;95103.94;;;15.82
34310;BMP280;61664;48.112;11.662;2023-03-25T09:38:43;95113.94;;;16.47
34310;BMP280;61664;48.112;11.662;2023-03-25T09:46:47;95092.19;;;17.12
34310;BMP280;61664;48.112;11.662;2023-03-25T09:49:23;95097.25;;;17.40
34310;BMP280;61664;48.112;11.662;2023-03-25T09:51:53;95076.22;;;17.84
34310;BMP280;61664;48.112;11.662;2023-03-25T09:54:24;95087.06;;;17.65
34310;BMP280;61664;48.112;11.662;2023-03-25T09:57:00;95088.97;;;17.51
34310;BMP280;61664;48.112;11.662;2023-03-25T09:59:49;95057.66;;;17.43
34310;BMP280;61664;48.112;11.662;2023-03-25T10:08:33;95078.03;;;17.25
34310;BMP280;61664;48.112;11.662;2023-03-25T10:14:10;95070.13;;;17.27
34310;BMP280;61664;48.112;11.662;2023-03-25T10:19:43;95059.16;;;16.82
34310;BMP280;61664;48.112;11.662;2023-03-25T10:22:26;95068.72;;;16.83
34310;BMP280;61664;48.112;11.662;2023-03-25T10:25:02;95061.88;;;16.58
34310;BMP280;61664;48.112;11.662;2023-03-25T10:27:43;95059.31;;;16.22
34310;BMP280;61664;48.112;11.662;2023-03-25T10:30:23;95054.66;;;15.87
34310;BMP280;61664;48.112;11.662;2023-03-25T10:33:01;95051.84;;;15.68
34310;BMP280;61664;48.112;11.662;2023-03-25T10:35:36;95053.63;;;15.60
34310;BMP280;61664;48.112;11.662;2023-03-25T10:38:21;95039.78;;;15.45
34310;BMP280;61664;48.112;11.662;2023-03-25T10:41:22;95060.03;;;15.52
34310;BMP280;61664;48.112;11.662;2023-03-25T10:43:45;95033.94;;;15.35
34310;BMP280;61664;48.112;11.662;2023-03-25T10:46:28;95044.31;;;15.15
34310;BMP280;61664;48.112;11.662;2023-03-25T10:48:57;95037.59;;;14.80
34310;BMP280;61664;48.112;11.662;2023-03-25T10:51:31;95039.69;;;14.41
34310;BMP280;61664;48.112;11.662;2023-03-25T10:53:59;95042.88;;;14.17
34310;BMP280;61664;48.112;11.662;2023-03-25T10:56:33;95040.69;;;13.93
34310;BMP280;61664;48.112;11.662;2023-03-25T10:59:28;95051.38;;;13.87
34310;BMP280;61664;48.112;11.662;2023-03-25T11:01:58;95037.50;;;13.94
34310;BMP280;61664;48.112;11.662;2023-03-25T11:04:40;95051.16;;;14.08
34310;BMP280;61664;48.112;11.662;2023-03-25T11:07:19;95023.09;;;14.03
34310;BMP280;61664;48.112;11.662;2023-03-25T11:09:47;95026.28;;;14.02
34310;BMP280;61664;48.112;11.662;2023-03-25T11:12:18;95015.28;;;14.11
34310;BMP280;61664;48.112;11.662;2023-03-25T11:15:14;95017.13;;;14.66
34310;BMP280;61664;48.112;11.662;2023-03-25T11:17:45;95014.06;;;14.97
34310;BMP280;61664;48.112;11.662;2023-03-25T11:20:19;95002.97;;;15.23
34310;BMP280;61664;48.112;11.662;2023-03-25T11:22:53;95018.16;;;15.56
34310;BMP280;61664;48.112;11.662;2023-03-25T11:25:28;95007.31;;;15.67
34310;BMP280;61664;48.112;11.662;2023-03-25T11:28:01;95004.97;;;15.53
34310;BMP280;61664;48.112;11.662;2023-03-25T11:30:28;95004.56;;;15.37
34310;BMP280;61664;48.112;11.662;2023-03-25T11:35:37;94977.78;;;15.21
34310;BMP280;61664;48.112;11.662;2023-03-25T11:38:28;94981.72;;;15.14
34310;BMP280;61664;48.112;11.662;2023-03-25T11:40:58;94976.78;;;15.18
34310;BMP280;61664;48.112;11.662;2023-03-25T11:43:33;94972.13;;;15.19
34310;BMP280;61664;48.112;11.662;2023-03-25T11:46:13;94985.50;;;15.30
34310;BMP280;61664;48.112;11.662;2023-03-25T11:48:44;94969.88;;;15.34
34310;BMP280;61664;48.112;11.662;2023-03-25T11:51:28;94981.00;;;15.49
34310;BMP280;61664;48.112;11.662;2023-03-25T11:54:13;94952.09;;;15.55
34310;BMP280;61664;48.112;11.662;2023-03-25T11:56:43;94962.47;;;15.70
34310;BMP280;61664;48.112;11.662;2023-03-25T11:59:25;94963.91;;;15.77
34310;BMP280;61664;48.112;11.662;2023-03-25T12:02:36;94972.78;;;15.71
34310;BMP280;61664;48.112;11.662;2023-03-25T12:07:47;94969.63;;;15.67
34310;BMP280;61664;48.112;11.662;2023-03-25T12:10:18;94956.28;;;15.81
34310;BMP280;61664;48.112;11.662;2023-03-25T12:13:02;94965.97;;;15.95
34310;BMP280;61664;48.112;11.662;2023-03-25T12:15:59;94952.69;;;15.97
34310;BMP280;61664;48.112;11.662;2023-03-25T12:19:18;94936.63;;;15.86
34310;BMP280;61664;48.112;11.662;2023-03-25T12:22:03;94956.56;;;15.77
34310;BMP280;61664;48.112;11.662;2023-03-25T12:25:11;94967.41;;;15.66
34310;BMP280;61664;48.112;11.662;2023-03-25T12:28:17;94926.63;;;15.56
34310;BMP280;61664;48.112;11.662;2023-03-25T12:31:11;94937.84;;;15.60
34310;BMP280;61664;48.112;11.662;2023-03-25T12:43:09;94967.22;;;15.58
34310;BMP280;61664;48.112;11.662;2023-03-25T12:46:20;94960.19;;;15.50
34310;BMP280;61664;48.112;11.662;2023-03-25T12:49:50;94950.13;;;15.56
34310;BMP280;61664;48.112;11.662;2023-03-25T12:53:08;94938.81;;;15.57
34310;BMP280;61664;48.112;11.662;2023-03-25T12:58:50;94936.97;;;15.77
34310;BMP280;61664;48.112;11.662;2023-03-25T13:01:33;94929.25;;;15.92
34310;BMP280;61664;48.112;11.662;2023-03-25T13:07:08;94929.75;;;16.15
34310;BMP280;61664;48.112;11.662;2023-03-25T13:09:59;94935.31;;;16.22
34310;BMP280;61664;48.112;11.662;2023-03-25T13:12:47;94930.31;;;16.32
34310;BMP280;61664;48.112;11.662;2023-03-25T13:18:20;94946.88;;;16.41
34310;BMP280;61664;48.112;11.662;2023-03-25T13:21:14;94971.16;;;16.36
34310;BMP280;61664;48.112;11.662;2023-03-25T13:23:45;94938.41;;;16.32
34310;BMP280;61664;48.112;11.662;2023-03-25T13:26:22;94950.53;;;16.63
34310;BMP280;61664;48.112;11.662;2023-03-25T13:29:03;94948.19;;;16.91
34310;BMP280;61664;48.112;11.662;2023-03-25T13:31:39;94950.22;;;17.04
34310;BMP280;61664;48.112;11.662;2023-03-25T13:34:42;94947.19;;;16.94
34310;BMP280;61664;48.112;11.662;2023-03-25T13:37:30;94953.41;;;17.21
34310;BMP280;61664;48.112;11.662;2023-03-25T13:40:21;94961.47;;;17.72
34310;BMP280;61664;48.112;11.662;2023-03-25T13:45:38;94964.13;;;18.04
34310;BMP280;61664;48.112;11.662;2023-03-25T13:48:31;94963.50;;;18.11
34310;BMP280;61664;48.112;11.662;2023-03-25T13:51:04;94961.59;;;18.06
34310;BMP280;61664;48.112;11.662;2023-03-25T13:53:46;94955.69;;;17.94
34310;BMP280;61664;48.112;11.662;2023-03-25T14:11:25;94945.78;;;19.87
34310;BMP280;61664;48.112;11.662;2023-03-25T14:14:06;94975.72;;;20.02
34310;BMP280;61664;48.112;11.662;2023-03-25T14:16:41;94943.88;;;20.39
34310;BMP280;61664;48.112;11.662;2023-03-25T14:19:18;94959.22;;;20.72
34310;BMP280;61664;48.112;11.662;2023-03-25T14:21:50;94945.34;;;21.06
34310;BMP280;61664;48.112;11.662;2023-03-25T14:27:23;94935.22;;;21.44
34310;BMP280;61664;48.112;11.662;2023-03-25T14:32:44;94941.75;;;22.27
34310;BMP280;61664;48.112;11.662;2023-03-25T14:43:36;94937.66;;;23.08
34310;BMP280;61664;48.112;11.662;2023-03-25T14:56:35;94920.72;;;22.92
34310;BMP280;61664;48.112;11.662;2023-03-25T14:59:16;94925.28;;;23.15
34310;BMP280;61664;48.112;11.662;2023-03-25T15:01:45;94914.06;;;23.28
34310;BMP280;61664;48.112;11.662;2023-03-25T15:04:33;94928.31;;;22.94
34310;BMP280;61664;48.112;11.662;2023-03-25T15:07:03;94923.72;;;23.04
34310;BMP280;61664;48.112;11.662;2023-03-25T15:09:51;94917.69;;;22.48
34310;BMP280;61664;48.112;11.662;2023-03-25T15:12:23;94922.84;;;21.81
34310;BMP280;61664;48.112;11.662;2023-03-25T15:15:06;94918.72;;;21.04
34310;BMP280;61664;48.112;11.662;2023-03-25T15:20:26;94937.47;;;20.64
34310;BMP280;61664;48.112;11.662;2023-03-25T15:25:47;94936.22;;;20.65
34310;BMP280;61664;48.112;11.662;2023-03-25T15:31:50;94942.59;;;19.96
34310;BMP280;61664;48.112;11.662;2023-03-25T15:37:42;94943.03;;;18.62
34310;BMP280;61664;48.112;11.662;2023-03-25T15:43:43;94942.78;;;18.87
34310;BMP280;61664;48.112;11.662;2023-03-25T15:46:38;94931.31;;;18.60
34310;BMP280;61664;48.112;11.662;2023-03-25T15:55:54;94933.09;;;18.44
34310;BMP280;61664;48.112;11.662;2023-03-25T15:58:39;94930.41;;;17.78
34310;BMP280;61664;48.112;11.662;2023-03-25T16:01:30;94945.69;;;17.12
34310;BMP280;61664;48.112;11.662;2023-03-25T16:06:49;94949.66;;;16.92
34310;BMP280;61664;48.112;11.662;2023-03-25T16:09:22;94945.03;;;17.70
34310;BMP280;61664;48.112;11.662;2023-03-25T16:11:50;94939.53;;;18.54
34310;BMP280;61664;48.112;11.662;2023-03-25T16:14:21;94934.94;;;19.38
34310;BMP280;61664;48.112;11.662;2023-03-25T16:16:55;94930.34;;;20.03
34310;BMP280;61664;48.112;11.662;2023-03-25T16:19:34;94919.69;;;20.41
34310;BMP280;61664;48.112;11.662;2023-03-25T16:22:24;94929.19;;;20.70
34310;BMP280;61664;48.112;11.662;2023-03-25T16:24:56;94930.28;;;20.75
34310;BMP280;61664;48.112;11.662;2023-03-25T16:27:36;94935.13;;;20.69
34310;BMP280;61664;48.112;11.662;2023-03-25T16:30:34;94945.03;;;20.51
34310;BMP280;61664;48.112;11.662;2023-03-25T16:35:49;94966.78;;;20.22
34310;BMP280;61664;48.112;11.662;2023-03-25T16:38:20;94954.56;;;20.08
34310;BMP280;61664;48.112;11.662;2023-03-25T16:40:48;94954.69;;;19.67
34310;BMP280;61664;48.112;11.662;2023-03-25T16:43:25;94960.44;;;19.01
34310;BMP280;61664;48.112;11.662;2023-03-25T16:45:58;94978.69;;;18.40
34310;BMP280;61664;48.112;11.662;2023-03-25T16:48:35;94974.28;;;18.37
34310;BMP280;61664;48.112;11.662;2023-03-25T16:51:17;94964.00;;;18.36
34310;BMP280;61664;48.112;11.662;2023-03-25T16:53:52;94961.50;;;18.51
34310;BMP280;61664;48.112;11.662;2023-03-25T16:56:35;94979.47;;;18.61